sensor_id;sensor_type;location;lat;lon;timestamp;P1;durP1;ratioP1;P2;durP2;ratioP2
80199;SDS011;69520;44.900;-0.764;2023-09-08T00:02:01;9.63;;;5.80;;
80199;SDS011;69520;44.900;-0.764;2023-09-08T00:04:27;10.25;;;5.80;;
80199;SDS011;69520;44.900;-0.764;2023-09-08T00:06:53;12.93;;;5.83;;
80199;SDS011;69520;44.900;-0.764;2023-09-08T00:09:19;8.57;;;5.35;;
80199;SDS011;69520;44.900;-0.764;2023-09-08T00:11:45;10.27;;;5.70;;
80199;SDS011;69520;44.900;-0.764;2023-09-08T00:14:11;10.02;;;5.18;;
80199;SDS011;69520;44.900;-0.764;2023-09-08T00:16:37;11.52;;;5.60;;
80199;SDS011;69520;44.900;-0.764;2023-09-08T00:19:07;12.67;;;5.73;;
80199;SDS011;69520;44.900;-0.764;2023-09-08T00:21:33;10.75;;;5.35;;
80199;SDS011;69520;44.900;-0.764;2023-09-08T00:23:59;11.93;;;5.68;;
80199;SDS011;69520;44.900;-0.764;2023-09-08T00:26:26;9.40;;;5.25;;
80199;SDS011;69520;44.900;-0.764;2023-09-08T00:28:52;11.65;;;5.50;;
80199;SDS011;69520;44.900;-0.764;2023-09-08T00:31:18;10.10;;;5.50;;
80199;SDS011;69520;44.900;-0.764;2023-09-08T00:33:44;9.07;;;5.80;;
80199;SDS011;69520;44.900;-0.764;2023-09-08T00:36:10;10.57;;;6.07;;
80199;SDS011;69520;44.900;-0.764;2023-09-08T00:38:36;11.90;;;5.75;;
80199;SDS011;69520;44.900;-0.764;2023-09-08T00:41:03;9.68;;;5.68;;
80199;SDS011;69520;44.900;-0.764;2023-09-08T00:43:29;11.20;;;5.70;;
80199;SDS011;69520;44.900;-0.764;2023-09-08T00:45:56;12.77;;;6.35;;
80199;SDS011;69520;44.900;-0.764;2023-09-08T00:48:27;13.32;;;5.97;;
80199;SDS011;69520;44.900;-0.764;2023-09-08T00:50:53;9.80;;;5.50;;
80199;SDS011;69520;44.900;-0.764;2023-09-08T00:53:20;10.20;;;5.53;;
80199;SDS011;69520;44.900;-0.764;2023-09-08T00:55:46;10.43;;;5.53;;
80199;SDS011;69520;44.900;-0.764;2023-09-08T00:58:13;9.90;;;5.05;;
80199;SDS011;69520;44.900;-0.764;2023-09-08T01:00:39;11.63;;;6.00;;
80199;SDS011;69520;44.900;-0.764;2023-09-08T01:03:05;11.90;;;5.20;;
80199;SDS011;69520;44.900;-0.764;2023-09-08T01:05:31;9.95;;;5.32;;
80199;SDS011;69520;44.900;-0.764;2023-09-08T01:07:58;10.13;;;5.20;;
80199;SDS011;69520;44.900;-0.764;2023-09-08T01:10:25;12.05;;;5.70;;
80199;SDS011;69520;44.900;-0.764;2023-09-08T01:12:51;10.02;;;5.63;;
80199;SDS011;69520;44.900;-0.764;2023-09-08T01:15:17;10.77;;;5.20;;
80199;SDS011;69520;44.900;-0.764;2023-09-08T01:17:43;11.10;;;5.32;;
80199;SDS011;69520;44.900;-0.764;2023-09-08T01:22:45;8.98;;;5.47;;
80199;SDS011;69520;44.900;-0.764;2023-09-08T01:25:18;13.00;;;5.72;;
80199;SDS011;69520;44.900;-0.764;2023-09-08T01:27:51;12.70;;;5.22;;
80199;SDS011;69520;44.900;-0.764;2023-09-08T01:30:18;9.80;;;5.40;;
80199;SDS011;69520;44.900;-0.764;2023-09-08T01:32:44;11.97;;;5.57;;
80199;SDS011;69520;44.900;-0.764;2023-09-08T01:35:11;10.00;;;5.65;;
80199;SDS011;69520;44.900;-0.764;2023-09-08T01:37:41;10.02;;;5.75;;
80199;SDS011;69520;44.900;-0.764;2023-09-08T01:40:07;10.65;;;5.30;;
80199;SDS011;69520;44.900;-0.764;2023-09-08T01:42:34;10.05;;;5.05;;
80199;SDS011;69520;44.900;-0.764;2023-09-08T01:45:00;10.17;;;5.10;;
80199;SDS011;69520;44.900;-0.764;2023-09-08T01:47:28;11.10;;;5.15;;
80199;SDS011;69520;44.900;-0.764;2023-09-08T01:49:55;10.30;;;5.68;;
80199;SDS011;69520;44.900;-0.764;2023-09-08T01:52:21;9.35;;;5.60;;
80199;SDS011;69520;44.900;-0.764;2023-09-08T01:54:47;10.38;;;5.57;;
80199;SDS011;69520;44.900;-0.764;2023-09-08T01:57:13;10.87;;;5.77;;
80199;SDS011;69520;44.900;-0.764;2023-09-08T01:59:39;12.93;;;5.80;;
80199;SDS011;69520;44.900;-0.764;2023-09-08T02:02:05;10.70;;;5.90;;
80199;SDS011;69520;44.900;-0.764;2023-09-08T02:04:31;11.48;;;5.43;;
80199;SDS011;69520;44.900;-0.764;2023-09-08T02:06:58;9.65;;;5.55;;
80199;SDS011;69520;44.900;-0.764;2023-09-08T02:09:31;10.50;;;5.47;;
80199;SDS011;69520;44.900;-0.764;2023-09-08T02:11:57;10.52;;;5.80;;
80199;SDS011;69520;44.900;-0.764;2023-09-08T02:14:23;9.13;;;5.55;;
80199;SDS011;69520;44.900;-0.764;2023-09-08T02:16:49;10.48;;;5.22;;
80199;SDS011;69520;44.900;-0.764;2023-09-08T02:19:15;10.15;;;5.38;;
80199;SDS011;69520;44.900;-0.764;2023-09-08T02:21:41;9.43;;;5.30;;
80199;SDS011;69520;44.900;-0.764;2023-09-08T02:24:07;11.93;;;5.32;;
80199;SDS011;69520;44.900;-0.764;2023-09-08T02:26:33;10.27;;;5.38;;
80199;SDS011;69520;44.900;-0.764;2023-09-08T02:29:00;12.82;;;5.00;;
80199;SDS011;69520;44.900;-0.764;2023-09-08T02:31:28;12.30;;;5.60;;
80199;SDS011;69520;44.900;-0.764;2023-09-08T02:33:54;9.43;;;5.27;;
80199;SDS011;69520;44.900;-0.764;2023-09-08T02:36:20;10.15;;;5.32;;
80199;SDS011;69520;44.900;-0.764;2023-09-08T02:38:52;10.30;;;5.50;;
80199;SDS011;69520;44.900;-0.764;2023-09-08T02:41:19;9.63;;;5.38;;
80199;SDS011;69520;44.900;-0.764;2023-09-08T02:43:45;11.50;;;5.63;;
80199;SDS011;69520;44.900;-0.764;2023-09-08T02:46:11;9.47;;;5.50;;
80199;SDS011;69520;44.900;-0.764;2023-09-08T02:48:38;9.98;;;5.32;;
80199;SDS011;69520;44.900;-0.764;2023-09-08T02:51:04;9.20;;;5.20;;
80199;SDS011;69520;44.900;-0.764;2023-09-08T02:53:30;10.00;;;5.15;;
80199;SDS011;69520;44.900;-0.764;2023-09-08T02:55:56;10.68;;;5.75;;
80199;SDS011;69520;44.900;-0.764;2023-09-08T02:58:24;11.83;;;5.63;;
80199;SDS011;69520;44.900;-0.764;2023-09-08T03:00:50;10.90;;;5.20;;
80199;SDS011;69520;44.900;-0.764;2023-09-08T03:03:20;11.82;;;5.30;;
80199;SDS011;69520;44.900;-0.764;2023-09-08T03:05:46;11.38;;;5.72;;
80199;SDS011;69520;44.900;-0.764;2023-09-08T03:08:12;9.77;;;5.40;;
80199;SDS011;69520;44.900;-0.764;2023-09-08T03:10:40;9.43;;;4.93;;
80199;SDS011;69520;44.900;-0.764;2023-09-08T03:13:06;10.50;;;4.90;;
80199;SDS011;69520;44.900;-0.764;2023-09-08T03:15:34;9.38;;;5.05;;
80199;SDS011;69520;44.900;-0.764;2023-09-08T03:18:00;9.30;;;4.80;;
80199;SDS011;69520;44.900;-0.764;2023-09-08T03:20:26;9.02;;;4.63;;
80199;SDS011;69520;44.900;-0.764;2023-09-08T03:22:53;11.87;;;4.87;;
80199;SDS011;69520;44.900;-0.764;2023-09-08T03:25:19;9.45;;;4.43;;
80199;SDS011;69520;44.900;-0.764;2023-09-08T03:27:45;11.35;;;5.20;;
80199;SDS011;69520;44.900;-0.764;2023-09-08T03:30:11;9.85;;;4.82;;
80199;SDS011;69520;44.900;-0.764;2023-09-08T03:32:38;8.57;;;4.32;;
80199;SDS011;69520;44.900;-0.764;2023-09-08T03:35:04;8.97;;;4.77;;
80199;SDS011;69520;44.900;-0.764;2023-09-08T03:37:34;8.77;;;4.70;;
80199;SDS011;69520;44.900;-0.764;2023-09-08T03:40:01;10.13;;;4.72;;
80199;SDS011;69520;44.900;-0.764;2023-09-08T03:42:29;9.80;;;4.55;;
80199;SDS011;69520;44.900;-0.764;2023-09-08T03:44:55;8.48;;;4.63;;
80199;SDS011;69520;44.900;-0.764;2023-09-08T03:47:21;8.33;;;4.50;;
80199;SDS011;69520;44.900;-0.764;2023-09-08T03:49:47;9.52;;;4.18;;
80199;SDS011;69520;44.900;-0.764;2023-09-08T03:52:13;8.82;;;4.55;;
80199;SDS011;69520;44.900;-0.764;2023-09-08T03:54:39;8.05;;;4.53;;
80199;SDS011;69520;44.900;-0.764;2023-09-08T03:57:06;8.77;;;4.40;;
80199;SDS011;69520;44.900;-0.764;2023-09-08T03:59:33;9.20;;;4.27;;
80199;SDS011;69520;44.900;-0.764;2023-09-08T04:01:59;9.95;;;4.40;;
80199;SDS011;69520;44.900;-0.764;2023-09-08T04:04:26;9.43;;;4.22;;
80199;SDS011;69520;44.900;-0.764;2023-09-08T04:06:52;9.02;;;4.40;;
80199;SDS011;69520;44.900;-0.764;2023-09-08T04:09:18;10.48;;;4.40;;
80199;SDS011;69520;44.900;-0.764;2023-09-08T04:11:44;7.50;;;4.30;;
80199;SDS011;69520;44.900;-0.764;2023-09-08T04:14:10;10.40;;;4.90;;
80199;SDS011;69520;44.900;-0.764;2023-09-08T04:16:36;9.90;;;4.70;;
80199;SDS011;69520;44.900;-0.764;2023-09-08T04:19:02;11.98;;;4.20;;
80199;SDS011;69520;44.900;-0.764;2023-09-08T04:21:28;10.88;;;4.43;;
80199;SDS011;69520;44.900;-0.764;2023-09-08T04:23:54;9.20;;;4.80;;
80199;SDS011;69520;44.900;-0.764;2023-09-08T04:26:20;8.73;;;4.60;;
80199;SDS011;69520;44.900;-0.764;2023-09-08T04:28:46;9.85;;;4.68;;
80199;SDS011;69520;44.900;-0.764;2023-09-08T04:31:12;9.13;;;4.63;;
80199;SDS011;69520;44.900;-0.764;2023-09-08T04:33:38;8.25;;;4.20;;
80199;SDS011;69520;44.900;-0.764;2023-09-08T04:36:04;8.73;;;3.87;;
80199;SDS011;69520;44.900;-0.764;2023-09-08T04:38:30;9.25;;;4.53;;
80199;SDS011;69520;44.900;-0.764;2023-09-08T04:40:56;7.38;;;4.30;;
80199;SDS011;69520;44.900;-0.764;2023-09-08T04:43:22;7.82;;;4.50;;
80199;SDS011;69520;44.900;-0.764;2023-09-08T04:45:48;10.18;;;4.90;;
80199;SDS011;69520;44.900;-0.764;2023-09-08T04:48:15;9.20;;;4.40;;
80199;SDS011;69520;44.900;-0.764;2023-09-08T04:50:41;7.80;;;4.10;;
80199;SDS011;69520;44.900;-0.764;2023-09-08T04:53:07;8.05;;;4.32;;
80199;SDS011;69520;44.900;-0.764;2023-09-08T04:55:33;10.40;;;4.70;;
80199;SDS011;69520;44.900;-0.764;2023-09-08T04:57:59;11.80;;;5.10;;
80199;SDS011;69520;44.900;-0.764;2023-09-08T05:00:25;8.90;;;4.73;;
80199;SDS011;69520;44.900;-0.764;2023-09-08T05:02:51;9.90;;;4.50;;
80199;SDS011;69520;44.900;-0.764;2023-09-08T05:05:17;10.82;;;4.88;;
80199;SDS011;69520;44.900;-0.764;2023-09-08T05:07:43;8.85;;;4.40;;
80199;SDS011;69520;44.900;-0.764;2023-09-08T05:10:10;10.45;;;4.88;;
80199;SDS011;69520;44.900;-0.764;2023-09-08T05:12:36;10.50;;;4.83;;
80199;SDS011;69520;44.900;-0.764;2023-09-08T05:15:02;8.65;;;4.53;;
80199;SDS011;69520;44.900;-0.764;2023-09-08T05:17:35;8.60;;;4.50;;
80199;SDS011;69520;44.900;-0.764;2023-09-08T05:20:01;8.48;;;4.43;;
80199;SDS011;69520;44.900;-0.764;2023-09-08T05:22:28;8.70;;;4.97;;
80199;SDS011;69520;44.900;-0.764;2023-09-08T05:24:54;9.77;;;4.80;;
80199;SDS011;69520;44.900;-0.764;2023-09-08T05:27:20;9.70;;;4.85;;
80199;SDS011;69520;44.900;-0.764;2023-09-08T05:29:46;9.10;;;4.82;;
80199;SDS011;69520;44.900;-0.764;2023-09-08T05:32:12;7.75;;;4.50;;
80199;SDS011;69520;44.900;-0.764;2023-09-08T05:34:38;8.60;;;4.57;;
80199;SDS011;69520;44.900;-0.764;2023-09-08T05:37:04;10.20;;;4.73;;
80199;SDS011;69520;44.900;-0.764;2023-09-08T05:39:30;8.15;;;4.55;;
80199;SDS011;69520;44.900;-0.764;2023-09-08T05:41:56;9.88;;;4.97;;
80199;SDS011;69520;44.900;-0.764;2023-09-08T05:44:22;8.85;;;4.35;;
80199;SDS011;69520;44.900;-0.764;2023-09-08T05:46:50;10.20;;;4.30;;
80199;SDS011;69520;44.900;-0.764;2023-09-08T05:49:16;9.40;;;4.93;;
80199;SDS011;69520;44.900;-0.764;2023-09-08T05:51:43;9.52;;;4.55;;
80199;SDS011;69520;44.900;-0.764;2023-09-08T05:54:09;8.70;;;4.40;;
80199;SDS011;69520;44.900;-0.764;2023-09-08T05:56:36;9.27;;;4.57;;
80199;SDS011;69520;44.900;-0.764;2023-09-08T05:59:02;9.60;;;4.28;;
80199;SDS011;69520;44.900;-0.764;2023-09-08T06:01:29;8.60;;;4.30;;
80199;SDS011;69520;44.900;-0.764;2023-09-08T06:03:55;9.60;;;4.63;;
80199;SDS011;69520;44.900;-0.764;2023-09-08T06:06:21;9.57;;;4.80;;
80199;SDS011;69520;44.900;-0.764;2023-09-08T06:08:48;8.23;;;4.20;;
80199;SDS011;69520;44.900;-0.764;2023-09-08T06:11:14;9.38;;;4.32;;
80199;SDS011;69520;44.900;-0.764;2023-09-08T06:13:40;8.83;;;3.80;;
80199;SDS011;69520;44.900;-0.764;2023-09-08T06:16:07;9.13;;;4.20;;
80199;SDS011;69520;44.900;-0.764;2023-09-08T06:18:33;8.13;;;4.00;;
80199;SDS011;69520;44.900;-0.764;2023-09-08T06:21:05;10.57;;;3.92;;
80199;SDS011;69520;44.900;-0.764;2023-09-08T06:23:32;8.07;;;4.18;;
80199;SDS011;69520;44.900;-0.764;2023-09-08T06:25:58;9.03;;;4.10;;
80199;SDS011;69520;44.900;-0.764;2023-09-08T06:28:25;9.13;;;3.60;;
80199;SDS011;69520;44.900;-0.764;2023-09-08T06:30:51;7.32;;;4.03;;
80199;SDS011;69520;44.900;-0.764;2023-09-08T06:33:18;9.43;;;4.10;;
80199;SDS011;69520;44.900;-0.764;2023-09-08T06:35:45;7.75;;;3.80;;
80199;SDS011;69520;44.900;-0.764;2023-09-08T06:38:11;9.77;;;3.60;;
80199;SDS011;69520;44.900;-0.764;2023-09-08T06:40:37;10.20;;;4.07;;
80199;SDS011;69520;44.900;-0.764;2023-09-08T06:43:05;9.93;;;3.92;;
80199;SDS011;69520;44.900;-0.764;2023-09-08T06:45:31;9.80;;;3.75;;
80199;SDS011;69520;44.900;-0.764;2023-09-08T06:47:57;6.85;;;3.70;;
80199;SDS011;69520;44.900;-0.764;2023-09-08T06:50:25;9.77;;;3.80;;
80199;SDS011;69520;44.900;-0.764;2023-09-08T06:52:51;9.48;;;3.60;;
80199;SDS011;69520;44.900;-0.764;2023-09-08T06:55:17;8.73;;;3.95;;
80199;SDS011;69520;44.900;-0.764;2023-09-08T06:57:44;10.60;;;3.70;;
80199;SDS011;69520;44.900;-0.764;2023-09-08T07:00:11;7.40;;;3.60;;
80199;SDS011;69520;44.900;-0.764;2023-09-08T07:02:38;9.23;;;3.80;;
80199;SDS011;69520;44.900;-0.764;2023-09-08T07:05:04;9.82;;;3.75;;
80199;SDS011;69520;44.900;-0.764;2023-09-08T07:07:36;9.55;;;3.60;;
80199;SDS011;69520;44.900;-0.764;2023-09-08T07:10:02;8.80;;;3.90;;
80199;SDS011;69520;44.900;-0.764;2023-09-08T07:12:29;7.38;;;3.40;;
80199;SDS011;69520;44.900;-0.764;2023-09-08T07:14:55;9.87;;;3.70;;
80199;SDS011;69520;44.900;-0.764;2023-09-08T07:17:21;8.25;;;3.88;;
80199;SDS011;69520;44.900;-0.764;2023-09-08T07:19:50;8.05;;;3.45;;
80199;SDS011;69520;44.900;-0.764;2023-09-08T07:22:16;7.53;;;3.85;;
80199;SDS011;69520;44.900;-0.764;2023-09-08T07:24:43;8.68;;;3.53;;
80199;SDS011;69520;44.900;-0.764;2023-09-08T07:27:09;7.77;;;3.63;;
80199;SDS011;69520;44.900;-0.764;2023-09-08T07:29:35;7.50;;;3.20;;
80199;SDS011;69520;44.900;-0.764;2023-09-08T07:32:01;7.40;;;3.45;;
80199;SDS011;69520;44.900;-0.764;2023-09-08T07:34:27;10.32;;;3.08;;
80199;SDS011;69520;44.900;-0.764;2023-09-08T07:36:53;9.50;;;3.38;;
80199;SDS011;69520;44.900;-0.764;2023-09-08T07:39:19;6.27;;;3.00;;
80199;SDS011;69520;44.900;-0.764;2023-09-08T07:41:45;9.02;;;3.22;;
80199;SDS011;69520;44.900;-0.764;2023-09-08T07:44:12;7.55;;;3.35;;
80199;SDS011;69520;44.900;-0.764;2023-09-08T07:46:38;6.80;;;3.35;;
80199;SDS011;69520;44.900;-0.764;2023-09-08T07:49:04;8.15;;;3.45;;
80199;SDS011;69520;44.900;-0.764;2023-09-08T07:51:30;7.50;;;3.30;;
80199;SDS011;69520;44.900;-0.764;2023-09-08T07:53:56;7.40;;;3.40;;
80199;SDS011;69520;44.900;-0.764;2023-09-08T07:56:23;8.80;;;3.45;;
80199;SDS011;69520;44.900;-0.764;2023-09-08T07:58:49;6.82;;;3.40;;
80199;SDS011;69520;44.900;-0.764;2023-09-08T08:01:15;7.47;;;3.40;;
80199;SDS011;69520;44.900;-0.764;2023-09-08T08:03:41;8.20;;;3.40;;
80199;SDS011;69520;44.900;-0.764;2023-09-08T08:06:07;8.77;;;3.25;;
80199;SDS011;69520;44.900;-0.764;2023-09-08T08:08:33;6.85;;;3.30;;
80199;SDS011;69520;44.900;-0.764;2023-09-08T08:11:08;7.57;;;3.00;;
80199;SDS011;69520;44.900;-0.764;2023-09-08T08:13:34;6.30;;;3.00;;
80199;SDS011;69520;44.900;-0.764;2023-09-08T08:16:00;7.30;;;3.20;;
80199;SDS011;69520;44.900;-0.764;2023-09-08T08:18:26;9.43;;;2.90;;
80199;SDS011;69520;44.900;-0.764;2023-09-08T08:20:52;7.18;;;3.13;;
80199;SDS011;69520;44.900;-0.764;2023-09-08T08:23:18;7.15;;;3.45;;
80199;SDS011;69520;44.900;-0.764;2023-09-08T08:25:44;7.72;;;3.40;;
80199;SDS011;69520;44.900;-0.764;2023-09-08T08:28:10;6.40;;;2.90;;
80199;SDS011;69520;44.900;-0.764;2023-09-08T08:30:36;6.00;;;3.25;;
80199;SDS011;69520;44.900;-0.764;2023-09-08T08:33:02;7.38;;;3.08;;
80199;SDS011;69520;44.900;-0.764;2023-09-08T08:35:29;8.88;;;3.47;;
80199;SDS011;69520;44.900;-0.764;2023-09-08T08:37:57;7.47;;;3.35;;
80199;SDS011;69520;44.900;-0.764;2023-09-08T08:40:23;6.87;;;3.33;;
80199;SDS011;69520;44.900;-0.764;2023-09-08T08:42:54;9.05;;;3.72;;
80199;SDS011;69520;44.900;-0.764;2023-09-08T08:45:20;7.93;;;3.83;;
80199;SDS011;69520;44.900;-0.764;2023-09-08T08:47:48;7.07;;;3.40;;
80199;SDS011;69520;44.900;-0.764;2023-09-08T08:50:14;6.82;;;3.63;;
80199;SDS011;69520;44.900;-0.764;2023-09-08T08:52:42;7.10;;;3.33;;
80199;SDS011;69520;44.900;-0.764;2023-09-08T08:55:08;8.82;;;3.95;;
80199;SDS011;69520;44.900;-0.764;2023-09-08T08:57:36;8.80;;;3.95;;
80199;SDS011;69520;44.900;-0.764;2023-09-08T09:00:03;7.20;;;3.78;;
80199;SDS011;69520;44.900;-0.764;2023-09-08T09:02:33;6.72;;;4.10;;
80199;SDS011;69520;44.900;-0.764;2023-09-08T09:05:00;7.23;;;3.80;;
80199;SDS011;69520;44.900;-0.764;2023-09-08T09:07:26;6.97;;;4.15;;
80199;SDS011;69520;44.900;-0.764;2023-09-08T09:09:53;7.80;;;4.55;;
80199;SDS011;69520;44.900;-0.764;2023-09-08T09:12:19;8.35;;;4.32;;
80199;SDS011;69520;44.900;-0.764;2023-09-08T09:14:46;6.40;;;3.75;;
80199;SDS011;69520;44.900;-0.764;2023-09-08T09:17:13;6.40;;;3.50;;
80199;SDS011;69520;44.900;-0.764;2023-09-08T09:19:39;6.53;;;3.83;;
80199;SDS011;69520;44.900;-0.764;2023-09-08T09:22:06;6.45;;;3.85;;
80199;SDS011;69520;44.900;-0.764;2023-09-08T09:24:39;6.40;;;3.30;;
80199;SDS011;69520;44.900;-0.764;2023-09-08T09:27:08;8.73;;;3.63;;
80199;SDS011;69520;44.900;-0.764;2023-09-08T09:29:35;8.23;;;3.60;;
80199;SDS011;69520;44.900;-0.764;2023-09-08T09:32:10;7.38;;;3.75;;
80199;SDS011;69520;44.900;-0.764;2023-09-08T09:34:36;8.60;;;4.30;;
80199;SDS011;69520;44.900;-0.764;2023-09-08T09:37:14;9.65;;;3.67;;
80199;SDS011;69520;44.900;-0.764;2023-09-08T09:39:40;6.68;;;3.78;;
80199;SDS011;69520;44.900;-0.764;2023-09-08T09:42:06;7.53;;;3.70;;
80199;SDS011;69520;44.900;-0.764;2023-09-08T09:44:32;8.30;;;4.13;;
80199;SDS011;69520;44.900;-0.764;2023-09-08T09:46:59;7.22;;;3.80;;
80199;SDS011;69520;44.900;-0.764;2023-09-08T09:49:26;8.40;;;3.63;;
80199;SDS011;69520;44.900;-0.764;2023-09-08T09:51:56;8.82;;;3.70;;
80199;SDS011;69520;44.900;-0.764;2023-09-08T09:54:24;7.93;;;3.73;;
80199;SDS011;69520;44.900;-0.764;2023-09-08T09:56:50;8.60;;;4.07;;
80199;SDS011;69520;44.900;-0.764;2023-09-08T09:59:17;7.63;;;3.72;;
80199;SDS011;69520;44.900;-0.764;2023-09-08T10:01:43;7.35;;;3.92;;
80199;SDS011;69520;44.900;-0.764;2023-09-08T10:04:09;7.13;;;3.58;;
80199;SDS011;69520;44.900;-0.764;2023-09-08T10:06:36;6.47;;;3.87;;
80199;SDS011;69520;44.900;-0.764;2023-09-08T10:09:03;7.38;;;3.85;;
80199;SDS011;69520;44.900;-0.764;2023-09-08T10:11:38;7.85;;;3.80;;
80199;SDS011;69520;44.900;-0.764;2023-09-08T10:14:07;7.47;;;4.00;;
80199;SDS011;69520;44.900;-0.764;2023-09-08T10:16:39;7.75;;;4.10;;
80199;SDS011;69520;44.900;-0.764;2023-09-08T10:19:07;7.27;;;4.17;;
80199;SDS011;69520;44.900;-0.764;2023-09-08T10:21:35;10.05;;;4.00;;
80199;SDS011;69520;44.900;-0.764;2023-09-08T10:24:07;6.05;;;3.50;;
80199;SDS011;69520;44.900;-0.764;2023-09-08T10:26:36;7.90;;;4.00;;
80199;SDS011;69520;44.900;-0.764;2023-09-08T10:29:03;7.63;;;3.85;;
80199;SDS011;69520;44.900;-0.764;2023-09-08T10:31:29;10.33;;;4.20;;
80199;SDS011;69520;44.900;-0.764;2023-09-08T10:33:55;6.78;;;3.97;;
80199;SDS011;69520;44.900;-0.764;2023-09-08T10:36:25;8.68;;;4.20;;
80199;SDS011;69520;44.900;-0.764;2023-09-08T10:38:51;10.35;;;4.07;;
80199;SDS011;69520;44.900;-0.764;2023-09-08T10:43:55;7.40;;;3.97;;
80199;SDS011;69520;44.900;-0.764;2023-09-08T10:46:28;8.30;;;4.25;;
80199;SDS011;69520;44.900;-0.764;2023-09-08T10:48:55;7.05;;;4.10;;
80199;SDS011;69520;44.900;-0.764;2023-09-08T10:51:27;10.90;;;4.35;;
80199;SDS011;69520;44.900;-0.764;2023-09-08T10:53:53;7.18;;;3.83;;
80199;SDS011;69520;44.900;-0.764;2023-09-08T10:56:19;7.23;;;4.10;;
80199;SDS011;69520;44.900;-0.764;2023-09-08T10:58:49;7.43;;;4.20;;
80199;SDS011;69520;44.900;-0.764;2023-09-08T11:01:16;6.93;;;3.90;;
80199;SDS011;69520;44.900;-0.764;2023-09-08T11:03:44;7.90;;;4.00;;
80199;SDS011;69520;44.900;-0.764;2023-09-08T11:06:12;6.60;;;4.07;;
80199;SDS011;69520;44.900;-0.764;2023-09-08T11:08:40;7.97;;;3.70;;
80199;SDS011;69520;44.900;-0.764;2023-09-08T11:11:07;6.35;;;3.72;;
80199;SDS011;69520;44.900;-0.764;2023-09-08T11:13:33;7.20;;;4.00;;
80199;SDS011;69520;44.900;-0.764;2023-09-08T11:15:59;7.60;;;3.80;;
80199;SDS011;69520;44.900;-0.764;2023-09-08T11:18:31;9.30;;;3.63;;
80199;SDS011;69520;44.900;-0.764;2023-09-08T11:20:59;7.73;;;4.13;;
80199;SDS011;69520;44.900;-0.764;2023-09-08T11:23:25;5.93;;;3.40;;
80199;SDS011;69520;44.900;-0.764;2023-09-08T11:25:52;8.48;;;3.85;;
80199;SDS011;69520;44.900;-0.764;2023-09-08T11:28:19;8.30;;;3.80;;
80199;SDS011;69520;44.900;-0.764;2023-09-08T11:30:47;8.63;;;4.00;;
80199;SDS011;69520;44.900;-0.764;2023-09-08T11:33:16;8.03;;;3.70;;
80199;SDS011;69520;44.900;-0.764;2023-09-08T11:35:45;6.28;;;3.28;;
80199;SDS011;69520;44.900;-0.764;2023-09-08T11:38:11;7.80;;;3.80;;
80199;SDS011;69520;44.900;-0.764;2023-09-08T11:40:38;7.55;;;3.92;;
80199;SDS011;69520;44.900;-0.764;2023-09-08T11:43:07;7.38;;;3.90;;
80199;SDS011;69520;44.900;-0.764;2023-09-08T11:45:36;6.50;;;3.60;;
80199;SDS011;69520;44.900;-0.764;2023-09-08T11:48:03;6.97;;;3.60;;
80199;SDS011;69520;44.900;-0.764;2023-09-08T11:50:29;6.85;;;3.70;;
80199;SDS011;69520;44.900;-0.764;2023-09-08T11:52:55;7.70;;;3.88;;
80199;SDS011;69520;44.900;-0.764;2023-09-08T11:55:24;7.13;;;3.80;;
80199;SDS011;69520;44.900;-0.764;2023-09-08T11:57:52;7.77;;;3.73;;
80199;SDS011;69520;44.900;-0.764;2023-09-08T12:00:22;6.18;;;3.83;;
80199;SDS011;69520;44.900;-0.764;2023-09-08T12:02:49;8.00;;;3.65;;
80199;SDS011;69520;44.900;-0.764;2023-09-08T12:07:49;7.97;;;4.63;;
80199;SDS011;69520;44.900;-0.764;2023-09-08T12:10:15;6.77;;;4.20;;
80199;SDS011;69520;44.900;-0.764;2023-09-08T12:12:46;10.05;;;4.78;;
80199;SDS011;69520;44.900;-0.764;2023-09-08T12:15:28;6.95;;;4.50;;
80199;SDS011;69520;44.900;-0.764;2023-09-08T12:17:56;8.07;;;4.78;;
80199;SDS011;69520;44.900;-0.764;2023-09-08T12:20:22;6.88;;;4.57;;
80199;SDS011;69520;44.900;-0.764;2023-09-08T12:22:49;6.90;;;4.30;;
80199;SDS011;69520;44.900;-0.764;2023-09-08T12:25:15;6.97;;;4.60;;
80199;SDS011;69520;44.900;-0.764;2023-09-08T12:27:41;7.68;;;4.97;;
80199;SDS011;69520;44.900;-0.764;2023-09-08T12:30:08;7.55;;;4.90;;
80199;SDS011;69520;44.900;-0.764;2023-09-08T12:32:34;7.68;;;5.00;;
80199;SDS011;69520;44.900;-0.764;2023-09-08T12:35:02;7.03;;;4.20;;
80199;SDS011;69520;44.900;-0.764;2023-09-08T12:37:29;6.80;;;4.93;;
80199;SDS011;69520;44.900;-0.764;2023-09-08T12:39:56;7.68;;;5.22;;
80199;SDS011;69520;44.900;-0.764;2023-09-08T12:42:22;6.75;;;4.90;;
80199;SDS011;69520;44.900;-0.764;2023-09-08T12:44:54;6.55;;;4.88;;
80199;SDS011;69520;44.900;-0.764;2023-09-08T12:47:20;7.10;;;5.00;;
80199;SDS011;69520;44.900;-0.764;2023-09-08T12:49:46;7.07;;;5.20;;
80199;SDS011;69520;44.900;-0.764;2023-09-08T12:52:12;7.65;;;5.45;;
80199;SDS011;69520;44.900;-0.764;2023-09-08T12:54:38;7.22;;;5.38;;
80199;SDS011;69520;44.900;-0.764;2023-09-08T12:57:04;7.95;;;5.60;;
80199;SDS011;69520;44.900;-0.764;2023-09-08T12:59:30;7.47;;;5.17;;
80199;SDS011;69520;44.900;-0.764;2023-09-08T13:01:56;6.32;;;5.03;;
80199;SDS011;69520;44.900;-0.764;2023-09-08T13:04:23;7.78;;;5.10;;
80199;SDS011;69520;44.900;-0.764;2023-09-08T13:06:49;6.75;;;5.20;;
80199;SDS011;69520;44.900;-0.764;2023-09-08T13:09:15;6.93;;;4.95;;
80199;SDS011;69520;44.900;-0.764;2023-09-08T13:11:42;6.40;;;5.20;;
80199;SDS011;69520;44.900;-0.764;2023-09-08T13:14:08;6.43;;;5.10;;
80199;SDS011;69520;44.900;-0.764;2023-09-08T13:16:34;7.90;;;5.45;;
80199;SDS011;69520;44.900;-0.764;2023-09-08T13:19:00;7.43;;;4.90;;
80199;SDS011;69520;44.900;-0.764;2023-09-08T13:21:26;7.55;;;5.60;;
80199;SDS011;69520;44.900;-0.764;2023-09-08T13:23:52;6.03;;;4.60;;
80199;SDS011;69520;44.900;-0.764;2023-09-08T13:26:18;6.07;;;4.75;;
80199;SDS011;69520;44.900;-0.764;2023-09-08T13:28:44;7.57;;;4.93;;
80199;SDS011;69520;44.900;-0.764;2023-09-08T13:31:10;13.13;;;5.15;;
80199;SDS011;69520;44.900;-0.764;2023-09-08T13:33:36;9.45;;;5.45;;
80199;SDS011;69520;44.900;-0.764;2023-09-08T13:36:02;6.60;;;4.93;;
80199;SDS011;69520;44.900;-0.764;2023-09-08T13:38:28;7.05;;;5.10;;
80199;SDS011;69520;44.900;-0.764;2023-09-08T13:40:54;7.05;;;4.85;;
80199;SDS011;69520;44.900;-0.764;2023-09-08T13:43:20;7.78;;;5.80;;
80199;SDS011;69520;44.900;-0.764;2023-09-08T13:45:47;6.38;;;5.13;;
80199;SDS011;69520;44.900;-0.764;2023-09-08T13:48:13;7.50;;;5.30;;
80199;SDS011;69520;44.900;-0.764;2023-09-08T13:50:39;7.85;;;5.82;;
80199;SDS011;69520;44.900;-0.764;2023-09-08T13:53:05;6.82;;;5.65;;
80199;SDS011;69520;44.900;-0.764;2023-09-08T13:55:31;7.03;;;5.20;;
80199;SDS011;69520;44.900;-0.764;2023-09-08T13:57:57;6.95;;;5.28;;
80199;SDS011;69520;44.900;-0.764;2023-09-08T14:00:24;7.17;;;4.93;;
80199;SDS011;69520;44.900;-0.764;2023-09-08T14:02:50;7.10;;;4.90;;
80199;SDS011;69520;44.900;-0.764;2023-09-08T14:05:16;7.88;;;4.97;;
80199;SDS011;69520;44.900;-0.764;2023-09-08T14:07:42;9.40;;;4.53;;
80199;SDS011;69520;44.900;-0.764;2023-09-08T14:10:08;6.90;;;4.82;;
80199;SDS011;69520;44.900;-0.764;2023-09-08T14:12:34;7.03;;;4.97;;
80199;SDS011;69520;44.900;-0.764;2023-09-08T14:15:00;7.35;;;4.68;;
80199;SDS011;69520;44.900;-0.764;2023-09-08T14:17:27;8.68;;;4.40;;
80199;SDS011;69520;44.900;-0.764;2023-09-08T14:19:53;7.00;;;3.97;;
80199;SDS011;69520;44.900;-0.764;2023-09-08T14:22:18;7.00;;;4.28;;
80199;SDS011;69520;44.900;-0.764;2023-09-08T14:24:45;7.23;;;4.20;;
80199;SDS011;69520;44.900;-0.764;2023-09-08T14:27:11;7.38;;;4.13;;
80199;SDS011;69520;44.900;-0.764;2023-09-08T14:29:37;7.75;;;3.95;;
80199;SDS011;69520;44.900;-0.764;2023-09-08T14:32:03;7.93;;;4.22;;
80199;SDS011;69520;44.900;-0.764;2023-09-08T14:34:29;6.75;;;3.80;;
80199;SDS011;69520;44.900;-0.764;2023-09-08T14:36:55;6.90;;;3.93;;